TVF7327 DAOO-LFML
Flight info
| Callsign | TVF7327 |
|---|---|
| Flight time | 1h 29m |
| Altitude | 37000 |
| Route | SID54 LABRO DCT CDP DCT CHELY DCT LUMAS UM976 SOSUR |
| Aircraft | B738/M-SDE2E3FGHIRWXY/LB1 |
Departure
| Time | 2026-04-22 16:24 |
|---|---|
| Airport | Oran Es-Sénia (Ahmed Ben Bella) International Airport (DAOO) |
Arrival
| Time | 2026-04-22 17:53 |
|---|---|
| Airport | Marseille Provence Airport (LFML) |
| Time | Latitude | Longitude | Altitude | Speed | Heading |
|---|---|---|---|---|---|
| 2026-04-22 16:04 | 35.62092 | -0.60775 | 309 ft | 0 kts | 203° |
| 2026-04-22 16:21 | 35.62091 | -0.60784 | 308 ft | 2 kts | 279° |
| 2026-04-22 16:21 | 35.62116 | -0.60797 | 309 ft | 6 kts | 341° |
| 2026-04-22 16:21 | 35.62153 | -0.60767 | 309 ft | 8 kts | 62° |
| 2026-04-22 16:22 | 35.62248 | -0.60684 | 309 ft | 11 kts | 337° |
| 2026-04-22 16:22 | 35.62303 | -0.60753 | 309 ft | 12 kts | 300° |
| 2026-04-22 16:22 | 35.62346 | -0.60844 | 309 ft | 12 kts | 300° |
| 2026-04-22 16:23 | 35.62431 | -0.61024 | 311 ft | 12 kts | 299° |
| 2026-04-22 16:23 | 35.62431 | -0.61117 | 311 ft | 11 kts | 246° |
| 2026-04-22 16:23 | 35.62378 | -0.61274 | 312 ft | 45 kts | 248° |
| 2026-04-22 16:24 | 35.62154 | -0.61916 | 310 ft | 116 kts | 249° |
| 2026-04-22 16:24 | 35.61301 | -0.64453 | 922 ft | 176 kts | 249° |
| 2026-04-22 16:24 | 35.60695 | -0.65790 | 1652 ft | 182 kts | 235° |
| 2026-04-22 16:25 | 35.59949 | -0.67045 | 2328 ft | 189 kts | 233° |
| 2026-04-22 16:25 | 35.58168 | -0.69945 | 2697 ft | 233 kts | 232° |
| 2026-04-22 16:25 | 35.57171 | -0.71577 | 3082 ft | 243 kts | 232° |
| 2026-04-22 16:26 | 35.56157 | -0.73240 | 3782 ft | 242 kts | 232° |
| 2026-04-22 16:26 | 35.55148 | -0.74897 | 4491 ft | 241 kts | 232° |
| 2026-04-22 16:26 | 35.54142 | -0.76551 | 5167 ft | 244 kts | 232° |
| 2026-04-22 16:26 | 35.53112 | -0.78243 | 5744 ft | 248 kts | 233° |
| 2026-04-22 16:27 | 35.52364 | -0.80137 | 6432 ft | 251 kts | 259° |
| 2026-04-22 16:27 | 35.52466 | -0.82274 | 7062 ft | 255 kts | 287° |
| 2026-04-22 16:27 | 35.53350 | -0.84163 | 7714 ft | 261 kts | 313° |
| 2026-04-22 16:27 | 35.54859 | -0.85382 | 8352 ft | 267 kts | 340° |
| 2026-04-22 16:28 | 35.56720 | -0.85573 | 9000 ft | 274 kts | 11° |
| 2026-04-22 16:28 | 35.58436 | -0.84562 | 9662 ft | 279 kts | 43° |
| 2026-04-22 16:28 | 35.59521 | -0.82608 | 10289 ft | 281 kts | 72° |
| 2026-04-22 16:28 | 35.59937 | -0.80196 | 10580 ft | 300 kts | 84° |
| 2026-04-22 16:29 | 35.60166 | -0.77548 | 10756 ft | 323 kts | 85° |
| 2026-04-22 16:29 | 35.60399 | -0.74714 | 10927 ft | 344 kts | 85° |
| 2026-04-22 16:29 | 35.60743 | -0.71750 | 11075 ft | 365 kts | 76° |
| 2026-04-22 16:29 | 35.61880 | -0.68915 | 11496 ft | 375 kts | 51° |
| 2026-04-22 16:30 | 35.63118 | -0.67368 | 11926 ft | 377 kts | 40° |
| 2026-04-22 16:30 | 35.65793 | -0.64609 | 12749 ft | 382 kts | 39° |
| 2026-04-22 16:30 | 35.67850 | -0.62485 | 13373 ft | 387 kts | 39° |
| 2026-04-22 16:30 | 35.69925 | -0.60327 | 13995 ft | 392 kts | 39° |
| 2026-04-22 16:31 | 35.72007 | -0.58142 | 14650 ft | 394 kts | 39° |
| 2026-04-22 16:31 | 35.74066 | -0.55968 | 15331 ft | 396 kts | 39° |
| 2026-04-22 16:31 | 35.76164 | -0.53739 | 16022 ft | 398 kts | 39° |
| 2026-04-22 16:31 | 35.78267 | -0.51498 | 16688 ft | 400 kts | 39° |
| 2026-04-22 16:32 | 35.80380 | -0.49240 | 17333 ft | 403 kts | 39° |
| 2026-04-22 16:32 | 35.82518 | -0.46953 | 17980 ft | 407 kts | 39° |
| 2026-04-22 16:32 | 35.84635 | -0.44685 | 18556 ft | 409 kts | 39° |
| 2026-04-22 16:32 | 35.86795 | -0.42368 | 19093 ft | 412 kts | 39° |
| 2026-04-22 16:33 | 35.88971 | -0.40033 | 19622 ft | 416 kts | 39° |
| 2026-04-22 16:33 | 35.91159 | -0.37684 | 20175 ft | 418 kts | 39° |
| 2026-04-22 16:33 | 35.93367 | -0.35311 | 20701 ft | 421 kts | 39° |
| 2026-04-22 16:33 | 35.95560 | -0.32952 | 21203 ft | 424 kts | 39° |
| 2026-04-22 16:34 | 35.97796 | -0.30546 | 21698 ft | 427 kts | 39° |
| 2026-04-22 16:34 | 36.00038 | -0.28131 | 22184 ft | 430 kts | 39° |
| 2026-04-22 16:34 | 36.02307 | -0.25685 | 22666 ft | 433 kts | 39° |
| 2026-04-22 16:34 | 36.04588 | -0.23225 | 23135 ft | 435 kts | 39° |
| 2026-04-22 16:35 | 36.06848 | -0.20785 | 23581 ft | 438 kts | 39° |
| 2026-04-22 16:35 | 36.09160 | -0.18286 | 23966 ft | 441 kts | 39° |
| 2026-04-22 16:35 | 36.11483 | -0.15774 | 24368 ft | 443 kts | 39° |
| 2026-04-22 16:35 | 36.13779 | -0.13289 | 24761 ft | 444 kts | 39° |
| 2026-04-22 16:36 | 36.16113 | -0.10761 | 25148 ft | 447 kts | 39° |
| 2026-04-22 16:36 | 36.18460 | -0.08216 | 25519 ft | 449 kts | 39° |
| 2026-04-22 16:36 | 36.20816 | -0.05660 | 25888 ft | 451 kts | 39° |
| 2026-04-22 16:36 | 36.23177 | -0.03096 | 26235 ft | 453 kts | 39° |
| 2026-04-22 16:37 | 36.25561 | -0.00506 | 26603 ft | 455 kts | 39° |
| 2026-04-22 16:37 | 36.27948 | 0.02090 | 26945 ft | 457 kts | 39° |
| 2026-04-22 16:37 | 36.30317 | 0.04670 | 27278 ft | 459 kts | 39° |
| 2026-04-22 16:37 | 36.32717 | 0.07284 | 27609 ft | 461 kts | 39° |
| 2026-04-22 16:38 | 36.35140 | 0.09927 | 27919 ft | 463 kts | 39° |
| 2026-04-22 16:38 | 36.37576 | 0.12586 | 28229 ft | 465 kts | 39° |
| 2026-04-22 16:38 | 36.39982 | 0.15213 | 28530 ft | 467 kts | 39° |
| 2026-04-22 16:38 | 36.42433 | 0.17894 | 28827 ft | 469 kts | 39° |
| 2026-04-22 16:39 | 36.44886 | 0.20578 | 29117 ft | 471 kts | 39° |
| 2026-04-22 16:39 | 36.47359 | 0.23287 | 29435 ft | 472 kts | 39° |
| 2026-04-22 16:39 | 36.49790 | 0.25953 | 29854 ft | 471 kts | 38° |
| 2026-04-22 16:39 | 36.52245 | 0.28647 | 30298 ft | 468 kts | 38° |
| 2026-04-22 16:40 | 36.54689 | 0.31333 | 30675 ft | 467 kts | 38° |
| 2026-04-22 16:40 | 36.57118 | 0.34004 | 30991 ft | 466 kts | 38° |
| 2026-04-22 16:40 | 36.61981 | 0.39355 | 31632 ft | 465 kts | 38° |
| 2026-04-22 16:41 | 36.64405 | 0.42026 | 31956 ft | 465 kts | 38° |
| 2026-04-22 16:41 | 36.66798 | 0.44665 | 32276 ft | 464 kts | 38° |
| 2026-04-22 16:41 | 36.69213 | 0.47330 | 32596 ft | 463 kts | 38° |
| 2026-04-22 16:41 | 36.71629 | 0.50000 | 32916 ft | 463 kts | 38° |
| 2026-04-22 16:42 | 36.74037 | 0.52663 | 33222 ft | 462 kts | 38° |
| 2026-04-22 16:42 | 36.76446 | 0.55330 | 33550 ft | 461 kts | 38° |
| 2026-04-22 16:42 | 36.78846 | 0.57988 | 33853 ft | 461 kts | 38° |
| 2026-04-22 16:42 | 36.81241 | 0.60644 | 34136 ft | 460 kts | 38° |
| 2026-04-22 16:43 | 36.83630 | 0.63295 | 34404 ft | 459 kts | 38° |
| 2026-04-22 16:43 | 36.86017 | 0.65947 | 34661 ft | 458 kts | 38° |
| 2026-04-22 16:43 | 36.88368 | 0.68560 | 34918 ft | 458 kts | 38° |
| 2026-04-22 16:43 | 36.90746 | 0.71206 | 35168 ft | 457 kts | 38° |
| 2026-04-22 16:44 | 36.93116 | 0.73845 | 35417 ft | 456 kts | 38° |
| 2026-04-22 16:44 | 36.95490 | 0.76491 | 35674 ft | 455 kts | 38° |
| 2026-04-22 16:44 | 36.97859 | 0.79133 | 35880 ft | 456 kts | 38° |
| 2026-04-22 16:44 | 37.00230 | 0.81780 | 36099 ft | 456 kts | 38° |
| 2026-04-22 16:45 | 37.02563 | 0.84388 | 36345 ft | 455 kts | 38° |
| 2026-04-22 16:45 | 37.04921 | 0.87025 | 36608 ft | 453 kts | 38° |
| 2026-04-22 16:45 | 37.07270 | 0.89656 | 36846 ft | 452 kts | 38° |
| 2026-04-22 16:45 | 37.09619 | 0.92287 | 37006 ft | 453 kts | 38° |
| 2026-04-22 16:46 | 37.11983 | 0.94936 | 36987 ft | 456 kts | 38° |
| 2026-04-22 16:46 | 37.16672 | 1.00203 | 36987 ft | 453 kts | 38° |
| 2026-04-22 16:47 | 37.21348 | 1.05464 | 36988 ft | 449 kts | 38° |
| 2026-04-22 16:47 | 37.25207 | 1.09811 | 36997 ft | 447 kts | 38° |
| 2026-04-22 16:48 | 37.30782 | 1.15630 | 37003 ft | 443 kts | 33° |
| 2026-04-22 16:48 | 37.35774 | 1.20127 | 36995 ft | 444 kts | 32° |
| 2026-04-22 16:49 | 37.40829 | 1.24649 | 36997 ft | 446 kts | 32° |
| 2026-04-22 16:49 | 37.45848 | 1.29211 | 36996 ft | 448 kts | 33° |
| 2026-04-22 16:50 | 37.50903 | 1.33852 | 36994 ft | 451 kts | 33° |
| 2026-04-22 16:50 | 37.55989 | 1.38542 | 36992 ft | 453 kts | 33° |
| 2026-04-22 16:51 | 37.61081 | 1.43246 | 36989 ft | 455 kts | 33° |
| 2026-04-22 16:51 | 37.66193 | 1.47976 | 36989 ft | 455 kts | 33° |
| 2026-04-22 16:52 | 37.71304 | 1.52712 | 37003 ft | 455 kts | 33° |
| 2026-04-22 16:52 | 37.76389 | 1.57432 | 36992 ft | 455 kts | 33° |
| 2026-04-22 16:53 | 37.81498 | 1.62183 | 36989 ft | 455 kts | 33° |
| 2026-04-22 16:53 | 37.86568 | 1.66906 | 36989 ft | 454 kts | 33° |
| 2026-04-22 16:54 | 37.91649 | 1.71647 | 36995 ft | 453 kts | 33° |
| 2026-04-22 16:54 | 37.96727 | 1.76393 | 36999 ft | 452 kts | 33° |
| 2026-04-22 16:55 | 38.01764 | 1.81109 | 36988 ft | 452 kts | 33° |
| 2026-04-22 16:55 | 38.06826 | 1.85857 | 36988 ft | 451 kts | 33° |
| 2026-04-22 16:56 | 38.11877 | 1.90603 | 36986 ft | 451 kts | 33° |
| 2026-04-22 16:56 | 38.16900 | 1.95330 | 36990 ft | 451 kts | 33° |
| 2026-04-22 16:57 | 38.21947 | 2.00089 | 36995 ft | 451 kts | 33° |
| 2026-04-22 16:57 | 38.26996 | 2.04859 | 36990 ft | 451 kts | 33° |
| 2026-04-22 16:58 | 38.31180 | 2.08817 | 36992 ft | 451 kts | 33° |
| 2026-04-22 16:58 | 38.37071 | 2.14401 | 36991 ft | 451 kts | 33° |
| 2026-04-22 16:59 | 38.41253 | 2.18373 | 36992 ft | 451 kts | 33° |
| 2026-04-22 16:59 | 38.46279 | 2.23152 | 36992 ft | 451 kts | 33° |
| 2026-04-22 17:00 | 38.51306 | 2.27941 | 36991 ft | 451 kts | 33° |
| 2026-04-22 17:00 | 38.58833 | 2.35129 | 36994 ft | 450 kts | 34° |
| 2026-04-22 17:01 | 38.63848 | 2.39928 | 36986 ft | 450 kts | 33° |
| 2026-04-22 17:01 | 38.68854 | 2.44728 | 36994 ft | 449 kts | 33° |
| 2026-04-22 17:02 | 38.73858 | 2.49534 | 36995 ft | 450 kts | 34° |
| 2026-04-22 17:02 | 38.78864 | 2.54350 | 36995 ft | 450 kts | 34° |
| 2026-04-22 17:03 | 38.83848 | 2.59154 | 36995 ft | 451 kts | 34° |
| 2026-04-22 17:03 | 38.88867 | 2.64001 | 37007 ft | 451 kts | 34° |
| 2026-04-22 17:04 | 38.93893 | 2.68862 | 37006 ft | 452 kts | 34° |
| 2026-04-22 17:04 | 38.98918 | 2.73733 | 36999 ft | 453 kts | 34° |
| 2026-04-22 17:05 | 39.03954 | 2.78623 | 37003 ft | 453 kts | 34° |
| 2026-04-22 17:05 | 39.08953 | 2.83485 | 37009 ft | 453 kts | 34° |
| 2026-04-22 17:06 | 39.13982 | 2.88386 | 37001 ft | 453 kts | 34° |
| 2026-04-22 17:06 | 39.19012 | 2.93297 | 37007 ft | 453 kts | 34° |
| 2026-04-22 17:07 | 39.24039 | 2.98214 | 37005 ft | 453 kts | 34° |
| 2026-04-22 17:07 | 39.29060 | 3.03134 | 37002 ft | 453 kts | 34° |
| 2026-04-22 17:08 | 39.34072 | 3.08055 | 37016 ft | 452 kts | 34° |
| 2026-04-22 17:08 | 39.39044 | 3.12945 | 37004 ft | 451 kts | 34° |
| 2026-04-22 17:09 | 39.44039 | 3.17867 | 37004 ft | 450 kts | 34° |
| 2026-04-22 17:09 | 39.49018 | 3.22782 | 37005 ft | 449 kts | 34° |
| 2026-04-22 17:10 | 39.53951 | 3.27661 | 37018 ft | 448 kts | 34° |
| 2026-04-22 17:10 | 39.58898 | 3.32562 | 37009 ft | 447 kts | 34° |
| 2026-04-22 17:11 | 39.63843 | 3.37473 | 37011 ft | 446 kts | 34° |
| 2026-04-22 17:11 | 39.68772 | 3.42373 | 37015 ft | 446 kts | 34° |
| 2026-04-22 17:12 | 39.73932 | 3.46780 | 37021 ft | 442 kts | 27° |
| 2026-04-22 17:12 | 39.79275 | 3.50744 | 37018 ft | 442 kts | 26° |
| 2026-04-22 17:13 | 39.84630 | 3.54722 | 37016 ft | 443 kts | 27° |
| 2026-04-22 17:13 | 39.89937 | 3.58737 | 37017 ft | 444 kts | 27° |
| 2026-04-22 17:14 | 39.95265 | 3.62810 | 37019 ft | 444 kts | 27° |
| 2026-04-22 17:14 | 40.00602 | 3.66905 | 37024 ft | 445 kts | 27° |
| 2026-04-22 17:15 | 40.05944 | 3.71010 | 37018 ft | 445 kts | 27° |
| 2026-04-22 17:15 | 40.11291 | 3.75127 | 37022 ft | 446 kts | 27° |
| 2026-04-22 17:16 | 40.16643 | 3.79252 | 37021 ft | 446 kts | 27° |
| 2026-04-22 17:16 | 40.21984 | 3.83378 | 37029 ft | 446 kts | 27° |
| 2026-04-22 17:17 | 40.27323 | 3.87510 | 37016 ft | 445 kts | 27° |
| 2026-04-22 17:17 | 40.32653 | 3.91643 | 37013 ft | 444 kts | 27° |
| 2026-04-22 17:18 | 40.37928 | 3.95740 | 37031 ft | 443 kts | 27° |
| 2026-04-22 17:18 | 40.43229 | 3.99865 | 37021 ft | 442 kts | 27° |
| 2026-04-22 17:19 | 40.53792 | 4.08107 | 37032 ft | 441 kts | 27° |
| 2026-04-22 17:20 | 40.64339 | 4.16367 | 37033 ft | 440 kts | 27° |
| 2026-04-22 17:21 | 40.72205 | 4.22548 | 37041 ft | 441 kts | 27° |
| 2026-04-22 17:22 | 40.80096 | 4.28766 | 37037 ft | 440 kts | 27° |
| 2026-04-22 17:23 | 40.87980 | 4.34997 | 37041 ft | 440 kts | 27° |
| 2026-04-22 17:23 | 40.95861 | 4.41242 | 37039 ft | 440 kts | 27° |
| 2026-04-22 17:24 | 41.01111 | 4.45412 | 37043 ft | 439 kts | 27° |
| 2026-04-22 17:24 | 41.06389 | 4.49471 | 37042 ft | 436 kts | 21° |
| 2026-04-22 17:25 | 41.12084 | 4.51769 | 37052 ft | 429 kts | 7° |
| 2026-04-22 17:25 | 41.17964 | 4.53135 | 37049 ft | 429 kts | 6° |
| 2026-04-22 17:26 | 41.23846 | 4.54510 | 37049 ft | 429 kts | 7° |
| 2026-04-22 17:26 | 41.29728 | 4.55933 | 37058 ft | 429 kts | 7° |
| 2026-04-22 17:27 | 41.35602 | 4.57374 | 37061 ft | 429 kts | 7° |
| 2026-04-22 17:27 | 41.41501 | 4.58827 | 36679 ft | 435 kts | 7° |
| 2026-04-22 17:28 | 41.44469 | 4.59558 | 36172 ft | 433 kts | 7° |
| 2026-04-22 17:28 | 41.47423 | 4.60288 | 35580 ft | 431 kts | 7° |
| 2026-04-22 17:28 | 41.50336 | 4.61007 | 34928 ft | 431 kts | 7° |
| 2026-04-22 17:28 | 41.53298 | 4.61739 | 34276 ft | 432 kts | 6° |
| 2026-04-22 17:29 | 41.56257 | 4.62471 | 33544 ft | 433 kts | 6° |
| 2026-04-22 17:29 | 41.59223 | 4.63205 | 32795 ft | 433 kts | 6° |
| 2026-04-22 17:29 | 41.62192 | 4.63940 | 32060 ft | 434 kts | 6° |
| 2026-04-22 17:29 | 41.65166 | 4.64678 | 31357 ft | 434 kts | 6° |
| 2026-04-22 17:30 | 41.68118 | 4.65412 | 30878 ft | 430 kts | 6° |
| 2026-04-22 17:30 | 41.71054 | 4.66142 | 30364 ft | 426 kts | 6° |
| 2026-04-22 17:30 | 41.73952 | 4.66898 | 29815 ft | 424 kts | 8° |
| 2026-04-22 17:30 | 41.76802 | 4.67898 | 29245 ft | 421 kts | 11° |
| 2026-04-22 17:31 | 41.79604 | 4.69012 | 28730 ft | 417 kts | 12° |
| 2026-04-22 17:31 | 41.82328 | 4.70137 | 28215 ft | 413 kts | 13° |
| 2026-04-22 17:31 | 41.85058 | 4.71265 | 27714 ft | 408 kts | 12° |
| 2026-04-22 17:31 | 41.87770 | 4.72373 | 27206 ft | 405 kts | 12° |
| 2026-04-22 17:32 | 41.90453 | 4.73457 | 26720 ft | 401 kts | 12° |
| 2026-04-22 17:32 | 41.93123 | 4.74526 | 26227 ft | 397 kts | 12° |
| 2026-04-22 17:32 | 41.95764 | 4.75578 | 25746 ft | 394 kts | 12° |
| 2026-04-22 17:32 | 41.98390 | 4.76620 | 25260 ft | 392 kts | 12° |
| 2026-04-22 17:33 | 42.00116 | 4.77305 | 24948 ft | 390 kts | 12° |
| 2026-04-22 17:33 | 42.03564 | 4.78674 | 24312 ft | 387 kts | 12° |
| 2026-04-22 17:33 | 42.06151 | 4.79702 | 23811 ft | 386 kts | 12° |
| 2026-04-22 17:33 | 42.08718 | 4.80723 | 23259 ft | 384 kts | 12° |
| 2026-04-22 17:34 | 42.11279 | 4.81743 | 22773 ft | 381 kts | 11° |
| 2026-04-22 17:34 | 42.13791 | 4.82745 | 22277 ft | 379 kts | 11° |
| 2026-04-22 17:34 | 42.16341 | 4.83763 | 21781 ft | 375 kts | 11° |
| 2026-04-22 17:34 | 42.18812 | 4.84750 | 21315 ft | 373 kts | 11° |
| 2026-04-22 17:35 | 42.21287 | 4.85739 | 20849 ft | 370 kts | 12° |
| 2026-04-22 17:35 | 42.23754 | 4.86726 | 20384 ft | 367 kts | 12° |
| 2026-04-22 17:35 | 42.26203 | 4.87706 | 19926 ft | 365 kts | 12° |
| 2026-04-22 17:35 | 42.28630 | 4.88679 | 19472 ft | 363 kts | 12° |
| 2026-04-22 17:36 | 42.31052 | 4.89649 | 19015 ft | 362 kts | 12° |
| 2026-04-22 17:36 | 42.33465 | 4.90617 | 18539 ft | 361 kts | 12° |
| 2026-04-22 17:36 | 42.35841 | 4.91571 | 18033 ft | 360 kts | 12° |
| 2026-04-22 17:36 | 42.38248 | 4.92539 | 17545 ft | 358 kts | 12° |
| 2026-04-22 17:37 | 42.40633 | 4.93499 | 17078 ft | 355 kts | 12° |
| 2026-04-22 17:37 | 42.42997 | 4.94451 | 16622 ft | 353 kts | 12° |
| 2026-04-22 17:37 | 42.45344 | 4.95397 | 16172 ft | 350 kts | 11° |
| 2026-04-22 17:37 | 42.47650 | 4.96326 | 15732 ft | 348 kts | 12° |
| 2026-04-22 17:38 | 42.49963 | 4.97260 | 15291 ft | 346 kts | 12° |
| 2026-04-22 17:38 | 42.52257 | 4.98187 | 15139 ft | 339 kts | 11° |
| 2026-04-22 17:38 | 42.54538 | 4.99108 | 15091 ft | 341 kts | 11° |
| 2026-04-22 17:38 | 42.56797 | 4.99913 | 15033 ft | 327 kts | 4° |
| 2026-04-22 17:39 | 42.58998 | 5.00252 | 14964 ft | 311 kts | 359° |
| 2026-04-22 17:39 | 42.61153 | 5.00436 | 14467 ft | 312 kts | 358° |
| 2026-04-22 17:39 | 42.65692 | 5.00795 | 12859 ft | 333 kts | 359° |
| 2026-04-22 17:40 | 42.67972 | 5.01015 | 12415 ft | 330 kts | 0° |
| 2026-04-22 17:40 | 42.70255 | 5.01251 | 11995 ft | 327 kts | 0° |
| 2026-04-22 17:40 | 42.72514 | 5.01494 | 11588 ft | 323 kts | 0° |
| 2026-04-22 17:40 | 42.74737 | 5.01736 | 11289 ft | 317 kts | 1° |
| 2026-04-22 17:41 | 42.76889 | 5.01973 | 11176 ft | 301 kts | 1° |
| 2026-04-22 17:41 | 42.78913 | 5.02197 | 10816 ft | 291 kts | 0° |
| 2026-04-22 17:41 | 42.80881 | 5.02618 | 10462 ft | 286 kts | 15° |
| 2026-04-22 17:41 | 42.82683 | 5.03774 | 10114 ft | 285 kts | 22° |
| 2026-04-22 17:42 | 42.84430 | 5.05003 | 9885 ft | 280 kts | 22° |
| 2026-04-22 17:42 | 42.86152 | 5.06208 | 9594 ft | 277 kts | 22° |
| 2026-04-22 17:42 | 42.87289 | 5.06996 | 9342 ft | 277 kts | 23° |
| 2026-04-22 17:42 | 42.89596 | 5.08583 | 8895 ft | 275 kts | 21° |
| 2026-04-22 17:43 | 42.91302 | 5.09753 | 8644 ft | 272 kts | 23° |
| 2026-04-22 17:43 | 42.92951 | 5.10884 | 8420 ft | 267 kts | 23° |
| 2026-04-22 17:43 | 42.94604 | 5.12018 | 8245 ft | 263 kts | 23° |
| 2026-04-22 17:43 | 42.96217 | 5.13202 | 8092 ft | 261 kts | 28° |
| 2026-04-22 17:44 | 42.97587 | 5.14843 | 7740 ft | 268 kts | 43° |
| 2026-04-22 17:44 | 42.98858 | 5.16680 | 7483 ft | 265 kts | 42° |
| 2026-04-22 17:44 | 43.00125 | 5.18502 | 7228 ft | 262 kts | 42° |
| 2026-04-22 17:44 | 43.01411 | 5.20297 | 6857 ft | 265 kts | 43° |
| 2026-04-22 17:45 | 43.02700 | 5.22062 | 6657 ft | 260 kts | 42° |
| 2026-04-22 17:45 | 43.03975 | 5.23801 | 6388 ft | 258 kts | 43° |
| 2026-04-22 17:45 | 43.04825 | 5.24942 | 6178 ft | 257 kts | 43° |
| 2026-04-22 17:45 | 43.06542 | 5.27196 | 5848 ft | 254 kts | 42° |
| 2026-04-22 17:46 | 43.07379 | 5.28287 | 5803 ft | 247 kts | 43° |
| 2026-04-22 17:46 | 43.08625 | 5.29900 | 5504 ft | 247 kts | 43° |
| 2026-04-22 17:46 | 43.10315 | 5.31936 | 5235 ft | 242 kts | 32° |
| 2026-04-22 17:46 | 43.11387 | 5.32442 | 5036 ft | 243 kts | 6° |
| 2026-04-22 17:47 | 43.13056 | 5.32440 | 4760 ft | 244 kts | 0° |
| 2026-04-22 17:47 | 43.14758 | 5.32398 | 4399 ft | 246 kts | 1° |
| 2026-04-22 17:47 | 43.16455 | 5.32390 | 4261 ft | 239 kts | 2° |
| 2026-04-22 17:47 | 43.18109 | 5.32409 | 4149 ft | 234 kts | 4° |
| 2026-04-22 17:48 | 43.19714 | 5.32447 | 4058 ft | 234 kts | 5° |
| 2026-04-22 17:48 | 43.21343 | 5.32501 | 3982 ft | 232 kts | 4° |
| 2026-04-22 17:48 | 43.22953 | 5.32562 | 3786 ft | 229 kts | 4° |
| 2026-04-22 17:48 | 43.24519 | 5.32623 | 3669 ft | 222 kts | 6° |
| 2026-04-22 17:49 | 43.26035 | 5.32689 | 3485 ft | 219 kts | 5° |
| 2026-04-22 17:49 | 43.27547 | 5.32755 | 3316 ft | 212 kts | 6° |
| 2026-04-22 17:49 | 43.28979 | 5.32814 | 3219 ft | 201 kts | 9° |
| 2026-04-22 17:49 | 43.30377 | 5.32597 | 2936 ft | 206 kts | 348° |
| 2026-04-22 17:50 | 43.31714 | 5.32017 | 2813 ft | 196 kts | 346° |
| 2026-04-22 17:50 | 43.33022 | 5.31497 | 2573 ft | 195 kts | 346° |
| 2026-04-22 17:50 | 43.34335 | 5.30986 | 2273 ft | 196 kts | 347° |
| 2026-04-22 17:50 | 43.35638 | 5.30485 | 2054 ft | 191 kts | 347° |
| 2026-04-22 17:51 | 43.36864 | 5.30015 | 1996 ft | 179 kts | 346° |
| 2026-04-22 17:51 | 43.38019 | 5.29440 | 1953 ft | 176 kts | 326° |
| 2026-04-22 17:51 | 43.38916 | 5.28297 | 1758 ft | 185 kts | 315° |
| 2026-04-22 17:51 | 43.39804 | 5.27018 | 1351 ft | 183 kts | 315° |
| 2026-04-22 17:52 | 43.40637 | 5.25821 | 1057 ft | 169 kts | 316° |
| 2026-04-22 17:52 | 43.41427 | 5.24696 | 788 ft | 156 kts | 315° |
| 2026-04-22 17:52 | 43.42165 | 5.23643 | 483 ft | 147 kts | 313° |
| 2026-04-22 17:52 | 43.42859 | 5.22670 | 194 ft | 139 kts | 311° |
| 2026-04-22 17:53 | 43.43523 | 5.21709 | 42 ft | 136 kts | 313° |
| 2026-04-22 17:53 | 43.44055 | 5.20957 | 20 ft | 79 kts | 314° |
| 2026-04-22 17:53 | 43.44308 | 5.20596 | 18 ft | 39 kts | 314° |
| 2026-04-22 17:53 | 43.44474 | 5.20357 | 18 ft | 27 kts | 313° |
| 2026-04-22 17:54 | 43.44592 | 5.20221 | 17 ft | 20 kts | 345° |
| 2026-04-22 17:54 | 43.44653 | 5.20262 | 16 ft | 0 kts | 45° |
| 2026-04-22 17:54 | 43.44666 | 5.20281 | 16 ft | 7 kts | 46° |
| 2026-04-22 17:54 | 43.44668 | 5.20347 | 16 ft | 7 kts | 118° |
| 2026-04-22 17:55 | 43.44634 | 5.20399 | 16 ft | 7 kts | 133° |
| 2026-04-22 17:55 | 43.44598 | 5.20450 | 17 ft | 9 kts | 134° |
| 2026-04-22 17:55 | 43.44544 | 5.20527 | 17 ft | 14 kts | 134° |
| 2026-04-22 17:55 | 43.44460 | 5.20647 | 17 ft | 19 kts | 134° |
| 2026-04-22 17:56 | 43.44368 | 5.20778 | 17 ft | 19 kts | 134° |
| 2026-04-22 17:56 | 43.44294 | 5.20919 | 18 ft | 18 kts | 118° |
| 2026-04-22 17:56 | 43.44221 | 5.21056 | 20 ft | 17 kts | 133° |
| 2026-04-22 17:56 | 43.44139 | 5.21174 | 23 ft | 17 kts | 134° |
| 2026-04-22 17:57 | 43.44059 | 5.21288 | 26 ft | 16 kts | 134° |
| 2026-04-22 17:57 | 43.43983 | 5.21398 | 29 ft | 15 kts | 134° |
| 2026-04-22 17:57 | 43.43922 | 5.21510 | 32 ft | 15 kts | 94° |
| 2026-04-22 17:57 | 43.43973 | 5.21632 | 33 ft | 16 kts | 63° |
| 2026-04-22 17:58 | 43.43940 | 5.21758 | 35 ft | 15 kts | 134° |
| 2026-04-22 17:58 | 43.43915 | 5.21875 | 36 ft | 15 kts | 50° |
| 2026-04-22 17:58 | 43.43992 | 5.21981 | 37 ft | 13 kts | 56° |
| 2026-04-22 17:58 | 43.43973 | 5.22058 | 38 ft | 8 kts | 132° |
| 2026-04-22 17:59 | 43.43971 | 5.22118 | 39 ft | 8 kts | 36° |
| 2026-04-22 17:59 | 43.44009 | 5.22152 | 39 ft | 2 kts | 34° |
| 2026-04-22 17:59 | 43.44016 | 5.22159 | 39 ft | 0 kts | 33° |